createdAt,value
2018-12-20T00:01:25.078Z,96.87
2018-12-20T00:03:54.069Z,97.03
2018-12-20T00:06:23.241Z,96.79
2018-12-20T00:08:52.395Z,96.74
2018-12-20T00:11:21.431Z,97.31
2018-12-20T00:13:50.640Z,96.57
2018-12-20T00:16:20.009Z,97.27
2018-12-20T00:18:49.221Z,97.15
2018-12-20T00:21:18.466Z,96.19
2018-12-20T00:23:47.528Z,96.67
2018-12-20T00:26:16.617Z,96.75
2018-12-20T00:28:45.782Z,96.43
2018-12-20T00:31:14.909Z,96.30
2018-12-20T00:33:44.138Z,96.05
2018-12-20T00:36:13.290Z,96.67
2018-12-20T00:38:42.537Z,95.78
2018-12-20T00:41:51.994Z,96.32
2018-12-20T00:44:20.954Z,96.47
2018-12-20T00:46:50.173Z,96.89
2018-12-20T00:49:19.273Z,96.70
2018-12-20T00:51:48.581Z,97.17
2018-12-20T00:54:17.867Z,96.61
2018-12-20T00:56:47.029Z,96.94
2018-12-20T00:59:16.137Z,96.52
2018-12-20T01:01:45.259Z,96.31
2018-12-20T01:04:14.407Z,96.62
2018-12-20T01:06:43.567Z,97.35
2018-12-20T01:09:12.881Z,97.07
2018-12-20T01:11:42.304Z,97.32
2018-12-20T01:14:11.597Z,96.90
2018-12-20T01:16:40.617Z,97.49
2018-12-20T01:19:09.749Z,97.26
2018-12-20T01:21:39.048Z,97.04
2018-12-20T01:24:10.296Z,97.45
2018-12-20T01:27:26.371Z,97.29
2018-12-20T01:30:05.507Z,97.01
2018-12-20T01:32:47.617Z,96.90
2018-12-20T01:38:43.774Z,97.53
2018-12-20T01:41:51.567Z,97.36
2018-12-20T01:44:53.484Z,97.45
2018-12-20T01:47:27.322Z,97.97
2018-12-20T01:49:59.995Z,98.25
2018-12-20T01:52:56.205Z,98.00
2018-12-20T01:55:25.283Z,97.97
2018-12-20T01:57:54.298Z,98.24
2018-12-20T02:00:34.468Z,98.26
2018-12-20T02:03:03.676Z,98.08
2018-12-20T02:05:32.848Z,98.55
2018-12-20T02:08:01.983Z,98.47
2018-12-20T02:10:31.164Z,99.24
2018-12-20T02:13:00.198Z,99.06
2018-12-20T02:15:29.231Z,98.70
2018-12-20T02:17:58.399Z,98.24
2018-12-20T02:20:27.427Z,98.03
2018-12-20T02:22:56.455Z,98.61
2018-12-20T02:25:25.860Z,99.18
2018-12-20T02:27:54.960Z,98.23
2018-12-20T02:30:24.305Z,99.09
2018-12-20T02:32:54.015Z,98.59
2018-12-20T02:35:23.429Z,98.14
2018-12-20T02:37:52.725Z,98.19
2018-12-20T02:40:22.028Z,98.97
2018-12-20T02:42:51.229Z,98.34
2018-12-20T02:45:20.479Z,98.51
2018-12-20T02:47:49.586Z,99.23
2018-12-20T02:50:18.560Z,98.63
2018-12-20T02:52:48.071Z,99.24
2018-12-20T02:55:17.398Z,98.27
2018-12-20T02:57:46.600Z,98.02
2018-12-20T03:00:15.870Z,98.56
2018-12-20T03:02:45.261Z,98.48
2018-12-20T03:05:14.399Z,98.71
2018-12-20T03:07:43.756Z,98.61
2018-12-20T03:10:12.900Z,98.83
2018-12-20T03:12:41.943Z,97.89
2018-12-20T03:15:19.806Z,98.46
2018-12-20T03:17:46.039Z,98.90
2018-12-20T03:20:15.144Z,98.61
2018-12-20T03:22:44.149Z,98.82
2018-12-20T03:25:13.225Z,98.67
2018-12-20T03:27:42.195Z,99.57
2018-12-20T03:30:11.221Z,98.27
2018-12-20T03:32:40.613Z,98.87
2018-12-20T03:35:09.894Z,98.48
2018-12-20T03:37:39.528Z,98.86
2018-12-20T03:40:09.045Z,98.29
2018-12-20T03:42:38.236Z,99.04
2018-12-20T03:45:07.441Z,98.87
2018-12-20T03:47:36.751Z,98.46
2018-12-20T03:50:06.144Z,98.77
2018-12-20T03:52:35.138Z,98.76
2018-12-20T03:55:04.683Z,98.63
2018-12-20T03:57:33.929Z,99.25
2018-12-20T04:00:02.873Z,99.32
2018-12-20T04:02:31.906Z,98.57
2018-12-20T04:05:01.134Z,98.56
2018-12-20T04:07:30.537Z,99.17
2018-12-20T04:09:59.720Z,99.02
2018-12-20T04:12:29.010Z,98.16
2018-12-20T04:14:58.107Z,98.22
2018-12-20T04:17:29.113Z,99.23
2018-12-20T04:19:58.165Z,98.64
2018-12-20T04:22:27.062Z,98.09
2018-12-20T04:24:56.245Z,98.50
2018-12-20T04:27:25.407Z,98.67
2018-12-20T04:29:54.434Z,98.66
2018-12-20T04:32:23.315Z,98.14
2018-12-20T04:34:52.393Z,98.22
2018-12-20T04:37:21.397Z,98.17
2018-12-20T04:39:50.526Z,98.66
2018-12-20T04:42:19.866Z,98.39
2018-12-20T04:44:49.035Z,99.29
2018-12-20T04:47:18.147Z,98.16
2018-12-20T04:49:47.477Z,98.96
2018-12-20T04:52:16.663Z,98.21
2018-12-20T04:54:45.999Z,99.10
2018-12-20T04:57:15.009Z,98.79
2018-12-20T04:59:44.272Z,98.28
2018-12-20T05:02:13.401Z,98.86
2018-12-20T05:04:42.489Z,98.57
2018-12-20T05:07:11.767Z,98.52
2018-12-20T05:09:40.874Z,99.10
2018-12-20T05:12:10.055Z,98.64
2018-12-20T05:14:39.873Z,98.58
2018-12-20T05:17:09.302Z,99.26
2018-12-20T05:19:38.627Z,98.67
2018-12-20T05:22:07.838Z,99.15
2018-12-20T05:24:36.910Z,98.89
2018-12-20T05:27:06.073Z,98.03
2018-12-20T05:29:35.207Z,98.58
2018-12-20T05:32:04.553Z,98.45
2018-12-20T05:34:33.614Z,97.98
2018-12-20T05:37:02.849Z,98.72
2018-12-20T05:39:32.192Z,99.25
2018-12-20T05:42:01.520Z,98.92
2018-12-20T05:44:30.851Z,99.14
2018-12-20T05:47:00.169Z,98.47
2018-12-20T05:49:29.138Z,98.67
2018-12-20T05:51:58.297Z,99.26
2018-12-20T05:54:27.494Z,98.50
2018-12-20T05:56:56.784Z,99.14
2018-12-20T05:59:25.864Z,98.87
2018-12-20T06:01:55.108Z,99.54
2018-12-20T06:04:24.221Z,99.09
2018-12-20T06:06:53.314Z,99.11
2018-12-20T06:09:22.583Z,99.22
2018-12-20T06:11:51.850Z,99.70
2018-12-20T06:14:21.114Z,99.80
2018-12-20T06:16:50.364Z,99.39
2018-12-20T06:19:19.433Z,99.83
2018-12-20T06:21:48.548Z,99.15
2018-12-20T06:24:17.614Z,98.89
2018-12-20T06:26:46.613Z,99.77
2018-12-20T06:29:15.553Z,99.45
2018-12-20T06:31:44.624Z,99.23
2018-12-20T06:34:13.605Z,100.00
2018-12-20T06:36:42.794Z,99.18
2018-12-20T06:39:11.725Z,100.00
2018-12-20T06:41:44.462Z,100.00
2018-12-20T06:44:13.600Z,100.00
2018-12-20T06:46:47.793Z,99.29
2018-12-20T06:49:17.393Z,99.49
2018-12-20T06:51:46.564Z,99.41
2018-12-20T06:54:15.544Z,99.73
2018-12-20T06:56:44.649Z,99.69
2018-12-20T06:59:13.650Z,99.93
2018-12-20T07:01:42.704Z,98.99
2018-12-20T07:04:11.749Z,98.81
2018-12-20T07:06:40.789Z,99.05
2018-12-20T07:09:10.905Z,99.93
2018-12-20T07:11:39.960Z,99.14
2018-12-20T07:14:08.957Z,99.36
2018-12-20T07:16:38.064Z,99.28
2018-12-20T07:19:07.205Z,99.64
2018-12-20T07:21:36.181Z,98.98
2018-12-20T07:24:05.345Z,100.00
2018-12-20T07:26:34.305Z,99.80
2018-12-20T07:29:03.334Z,99.35
2018-12-20T07:31:32.382Z,99.68
2018-12-20T07:34:01.461Z,99.57
2018-12-20T07:36:30.475Z,99.33
2018-12-20T07:38:59.572Z,99.29
2018-12-20T07:41:28.667Z,98.97
2018-12-20T07:43:57.960Z,99.59
2018-12-20T07:46:26.993Z,99.29
2018-12-20T07:48:56.388Z,99.41
2018-12-20T07:51:25.534Z,99.44
2018-12-20T07:53:54.754Z,99.92
2018-12-20T07:56:23.777Z,99.62
2018-12-20T07:58:52.770Z,99.15
2018-12-20T08:01:23.411Z,99.12
2018-12-20T08:03:52.502Z,98.99
2018-12-20T08:06:21.529Z,99.20
2018-12-20T08:08:50.493Z,99.52
2018-12-20T08:11:19.609Z,99.98
2018-12-20T08:13:48.639Z,99.30
2018-12-20T08:16:17.729Z,99.69
2018-12-20T08:18:46.794Z,99.25
2018-12-20T08:21:15.916Z,100.00
2018-12-20T08:23:44.892Z,99.02
2018-12-20T08:26:13.974Z,99.51
2018-12-20T08:28:43.121Z,99.66
2018-12-20T08:31:12.269Z,99.06
2018-12-20T08:33:41.270Z,99.22
2018-12-20T08:36:10.261Z,98.79
2018-12-20T08:38:39.228Z,98.60
2018-12-20T08:41:09.144Z,98.29
2018-12-20T08:43:38.501Z,99.07
2018-12-20T08:46:07.485Z,98.45
2018-12-20T08:48:36.543Z,98.82
2018-12-20T08:51:05.657Z,98.29
2018-12-20T08:53:34.726Z,98.85
2018-12-20T08:56:03.833Z,98.72
2018-12-20T08:58:40.361Z,98.46
2018-12-20T09:01:09.424Z,98.33
2018-12-20T09:03:38.374Z,98.60
2018-12-20T09:06:07.534Z,97.84
2018-12-20T09:08:58.479Z,97.92
2018-12-20T09:11:27.517Z,98.51
2018-12-20T09:13:56.488Z,98.50
2018-12-20T09:16:25.445Z,98.54
2018-12-20T09:18:54.534Z,97.96
2018-12-20T09:21:23.545Z,97.76
2018-12-20T09:23:52.646Z,97.67
2018-12-20T09:26:21.812Z,97.98
2018-12-20T09:28:50.894Z,97.50
2018-12-20T09:31:19.998Z,97.21
2018-12-20T09:33:49.130Z,97.19
2018-12-20T09:36:18.186Z,97.15
2018-12-20T09:39:13.327Z,97.37
2018-12-20T09:41:49.480Z,97.79
2018-12-20T09:44:26.721Z,97.60
2018-12-20T09:47:11.799Z,97.38
2018-12-20T09:49:45.330Z,96.49
2018-12-20T09:52:14.550Z,96.42
2018-12-20T09:54:46.809Z,96.81
2018-12-20T09:57:23.817Z,96.21
2018-12-20T09:59:56.622Z,96.22
2018-12-20T10:02:28.897Z,95.85
2018-12-20T10:05:02.040Z,95.23
2018-12-20T10:07:35.850Z,94.92
2018-12-20T10:10:08.999Z,94.16
2018-12-20T10:12:46.186Z,94.81
2018-12-20T10:15:19.042Z,92.59
2018-12-20T10:17:56.109Z,92.48
2018-12-20T10:20:28.965Z,92.14
2018-12-20T10:22:58.581Z,91.86
2018-12-20T10:25:31.637Z,91.64
2018-12-20T10:28:02.447Z,92.12
2018-12-20T10:30:35.072Z,90.86
2018-12-20T10:33:04.197Z,90.70
2018-12-20T10:35:33.301Z,91.20
2018-12-20T10:38:02.362Z,89.83
2018-12-20T10:40:31.453Z,87.20
2018-12-20T10:43:00.473Z,87.77
2018-12-20T10:45:29.458Z,88.29
2018-12-20T10:47:58.663Z,87.94
2018-12-20T10:50:27.723Z,87.00
2018-12-20T10:52:56.869Z,84.59
2018-12-20T10:55:26.105Z,84.60
2018-12-20T10:57:55.129Z,83.45
2018-12-20T11:00:24.766Z,84.13
2018-12-20T11:02:58.970Z,84.25
2018-12-20T11:06:08.429Z,83.44
2018-12-20T11:08:50.376Z,83.47
2018-12-20T11:11:21.362Z,83.85
2018-12-20T11:13:50.837Z,83.36
2018-12-20T11:16:19.934Z,83.55
2018-12-20T11:18:48.922Z,82.37
2018-12-20T11:21:17.886Z,82.91
2018-12-20T11:23:46.850Z,82.42
2018-12-20T11:26:16.408Z,81.97
2018-12-20T11:28:45.965Z,82.32
2018-12-20T11:31:14.996Z,82.66
2018-12-20T11:33:44.058Z,79.49
2018-12-20T11:36:13.444Z,80.24
2018-12-20T11:38:42.394Z,80.08
2018-12-20T11:41:12.341Z,80.36
2018-12-20T11:43:41.375Z,79.89
2018-12-20T11:46:10.418Z,80.32
2018-12-20T11:48:43.345Z,80.63
2018-12-20T11:51:12.373Z,80.97
2018-12-20T11:53:42.269Z,80.92
2018-12-20T11:56:37.765Z,80.39
2018-12-20T11:59:14.468Z,81.01
2018-12-20T12:01:51.370Z,81.56
2018-12-20T12:04:20.385Z,81.78
2018-12-20T12:07:09.835Z,81.40
2018-12-20T12:09:46.298Z,81.37
2018-12-20T12:12:15.582Z,81.80
2018-12-20T12:14:44.617Z,82.09
2018-12-20T12:17:13.667Z,82.38
2018-12-20T12:19:42.740Z,83.13
2018-12-20T12:23:01.973Z,83.46
2018-12-20T12:25:38.322Z,82.81
2018-12-20T12:28:34.997Z,83.49
2018-12-20T12:31:04.082Z,83.08
2018-12-20T12:33:34.893Z,82.53
2018-12-20T12:36:38.197Z,81.99
2018-12-20T12:39:21.509Z,82.14
2018-12-20T12:41:58.194Z,80.94
2018-12-20T12:44:30.794Z,81.97
2018-12-20T12:47:09.009Z,80.55
2018-12-20T12:49:42.555Z,80.32
2018-12-20T12:52:15.733Z,80.40
2018-12-20T12:54:52.613Z,80.58
2018-12-20T12:57:23.640Z,80.45
2018-12-20T12:59:56.722Z,80.14
2018-12-20T13:02:29.660Z,79.36
2018-12-20T13:05:02.566Z,79.39
2018-12-20T13:07:35.809Z,78.53
2018-12-20T13:10:08.710Z,78.53
2018-12-20T13:12:41.874Z,77.78
2018-12-20T13:15:14.095Z,78.61
2018-12-20T13:17:51.169Z,78.17
2018-12-20T13:20:25.076Z,79.45
2018-12-20T13:22:58.062Z,79.48
2018-12-20T13:25:31.008Z,79.72
2018-12-20T13:28:04.549Z,79.45
2018-12-20T13:30:43.499Z,80.38
2018-12-20T13:33:20.338Z,80.27
2018-12-20T13:35:53.150Z,80.64
2018-12-20T13:38:26.213Z,80.77
2018-12-20T13:40:55.290Z,81.04
2018-12-20T13:43:24.310Z,81.33
2018-12-20T13:45:53.458Z,82.74
2018-12-20T13:48:39.786Z,82.36
2018-12-20T13:51:08.813Z,83.34
2018-12-20T13:53:38.830Z,83.94
2018-12-20T13:56:07.845Z,84.78
2018-12-20T13:58:37.835Z,85.52
2018-12-20T14:01:07.288Z,86.29
2018-12-20T14:07:00.775Z,86.83
2018-12-20T14:09:29.828Z,86.84
2018-12-20T14:11:58.913Z,88.03
2018-12-20T14:14:28.081Z,87.44
2018-12-20T14:17:23.873Z,87.60
2018-12-20T14:19:57.509Z,88.47
2018-12-20T14:22:27.935Z,89.11
2018-12-20T14:25:00.963Z,88.67
2018-12-20T14:27:37.508Z,89.55
2018-12-20T14:30:09.400Z,90.08
2018-12-20T14:32:38.459Z,89.15
2018-12-20T14:35:08.589Z,90.11
2018-12-20T14:37:37.782Z,89.74
2018-12-20T14:40:09.733Z,90.33
2018-12-20T14:42:38.877Z,89.87
2018-12-20T14:45:08.193Z,90.03
2018-12-20T14:47:37.269Z,90.19
2018-12-20T14:50:07.841Z,90.32
2018-12-20T14:52:36.820Z,90.54
2018-12-20T14:55:07.102Z,90.29
2018-12-20T14:57:36.157Z,90.16
2018-12-20T15:00:07.374Z,89.96
2018-12-20T15:02:37.789Z,90.93
2018-12-20T15:05:07.455Z,90.35
2018-12-20T15:08:02.885Z,90.61
2018-12-20T15:10:40.057Z,91.23
2018-12-20T15:13:09.173Z,91.12
2018-12-20T15:15:45.610Z,92.08
2018-12-20T15:18:14.593Z,92.26
2018-12-20T15:20:51.779Z,92.35
2018-12-20T15:23:31.373Z,93.26
2018-12-20T15:26:00.433Z,92.34
2018-12-20T15:28:32.718Z,93.50
2018-12-20T15:31:16.005Z,93.77
2018-12-20T15:33:52.686Z,93.19
2018-12-20T15:36:25.669Z,92.98
2018-12-20T15:38:58.283Z,93.46
2018-12-20T15:41:31.348Z,94.52
2018-12-20T15:44:03.965Z,94.11
2018-12-20T15:46:33.169Z,93.86
2018-12-20T15:49:05.765Z,94.56
2018-12-20T15:51:42.189Z,94.67
2018-12-20T15:54:15.309Z,94.35
2018-12-20T15:56:48.044Z,94.70
2018-12-20T15:59:24.837Z,95.17
2018-12-20T16:01:54.717Z,95.31
2018-12-20T16:04:27.217Z,95.48
2018-12-20T16:06:56.794Z,96.34
2018-12-20T16:09:26.009Z,95.99
2018-12-20T16:11:55.209Z,96.63
2018-12-20T16:14:24.517Z,96.56
2018-12-20T16:16:57.461Z,95.70
2018-12-20T16:19:30.205Z,95.76
2018-12-20T16:22:03.556Z,96.23
2018-12-20T16:24:40.834Z,96.46
2018-12-20T16:27:13.050Z,96.99
2018-12-20T16:29:46.326Z,97.08
2018-12-20T16:32:23.141Z,96.80
2018-12-20T16:34:55.917Z,96.79
2018-12-20T16:37:28.041Z,96.48
2018-12-20T16:40:00.635Z,97.11
2018-12-20T16:42:37.213Z,97.76
2018-12-20T16:45:10.469Z,97.24
2018-12-20T16:47:41.720Z,97.93
2018-12-20T16:50:15.840Z,97.79
2018-12-20T16:52:48.766Z,97.77
2018-12-20T16:55:21.237Z,97.37
2018-12-20T16:57:57.736Z,97.33
2018-12-20T17:00:30.938Z,97.31
2018-12-20T17:03:07.421Z,98.11
2018-12-20T17:05:40.738Z,97.41
2018-12-20T17:08:13.950Z,98.13
2018-12-20T17:10:49.753Z,97.63
2018-12-20T17:13:23.076Z,97.89
2018-12-20T17:15:58.217Z,97.87
2018-12-20T17:18:30.826Z,97.79
2018-12-20T17:21:04.200Z,97.63
2018-12-20T17:23:37.335Z,98.53
2018-12-20T17:26:10.233Z,97.93
2018-12-20T17:28:43.329Z,97.99
2018-12-20T17:31:20.985Z,97.99
2018-12-20T17:33:57.845Z,97.68
2018-12-20T17:36:30.974Z,98.06
2018-12-20T17:39:06.118Z,98.38
2018-12-20T17:41:40.109Z,98.43
2018-12-20T17:44:13.116Z,98.46
2018-12-20T17:46:50.133Z,98.43
2018-12-20T17:49:30.671Z,98.45
2018-12-20T17:52:01.660Z,98.09
2018-12-20T17:54:34.656Z,98.21
2018-12-20T17:57:07.693Z,98.31
2018-12-20T17:59:44.728Z,98.33
2018-12-20T18:02:17.778Z,98.72
2018-12-20T18:04:54.533Z,99.10
2018-12-20T18:07:32.462Z,98.79
2018-12-20T18:10:08.001Z,99.21
2018-12-20T18:12:44.649Z,98.95
2018-12-20T18:15:17.649Z,99.10
2018-12-20T18:17:55.577Z,99.28
2018-12-20T18:20:32.637Z,99.40
2018-12-20T18:23:05.327Z,100.00
2018-12-20T18:25:38.450Z,98.84
2018-12-20T18:28:11.620Z,99.38
2018-12-20T18:30:44.552Z,99.42
2018-12-20T18:33:17.644Z,98.77
2018-12-20T18:35:50.681Z,98.63
2018-12-20T18:38:23.700Z,99.08
2018-12-20T18:40:56.897Z,98.66
2018-12-20T18:43:29.975Z,98.63
2018-12-20T18:46:06.677Z,99.60
2018-12-20T18:48:39.685Z,99.83
2018-12-20T18:51:16.371Z,99.84
2018-12-20T18:53:49.229Z,100.00
2018-12-20T18:56:22.496Z,100.00
2018-12-20T18:58:55.600Z,99.56
2018-12-20T19:01:32.726Z,100.00
2018-12-20T19:04:05.913Z,100.00
2018-12-20T19:06:39.109Z,100.00
2018-12-20T19:09:11.965Z,100.00
2018-12-20T19:11:45.100Z,100.00
2018-12-20T19:14:18.033Z,99.83
2018-12-20T19:16:51.042Z,100.00
2018-12-20T19:19:24.314Z,99.52
2018-12-20T19:21:57.386Z,100.00
2018-12-20T19:24:31.134Z,100.00
2018-12-20T19:27:08.652Z,100.00
2018-12-20T19:29:45.714Z,99.69
2018-12-20T19:32:18.885Z,99.55
2018-12-20T19:34:55.842Z,99.93
2018-12-20T19:37:28.888Z,100.00
2018-12-20T19:40:07.657Z,99.69
2018-12-20T19:42:40.841Z,99.74
2018-12-20T19:45:13.962Z,99.46
2018-12-20T19:47:47.608Z,100.00
2018-12-20T19:50:21.842Z,99.54
2018-12-20T19:52:55.402Z,99.53
2018-12-20T19:55:29.429Z,99.76
2018-12-20T19:58:06.496Z,99.69
2018-12-20T20:00:39.601Z,100.00
2018-12-20T20:03:12.793Z,99.34
2018-12-20T20:05:45.774Z,99.76
2018-12-20T20:08:18.751Z,99.85
2018-12-20T20:10:51.738Z,99.88
2018-12-20T20:13:30.698Z,99.39
2018-12-20T20:16:00.421Z,99.16
2018-12-20T20:18:33.594Z,99.52
2018-12-20T20:21:06.589Z,99.82
2018-12-20T20:23:39.481Z,99.62
2018-12-20T20:26:13.052Z,99.55
2018-12-20T20:28:45.797Z,99.79
2018-12-20T20:31:19.053Z,99.27
2018-12-20T20:33:52.239Z,99.74
2018-12-20T20:36:25.373Z,99.73
2018-12-20T20:39:02.161Z,99.29
2018-12-20T20:41:35.160Z,99.81
2018-12-20T20:44:08.629Z,99.76
2018-12-20T20:46:41.513Z,98.09
2018-12-20T20:49:14.829Z,98.93
2018-12-20T20:51:51.722Z,99.01
2018-12-20T20:54:24.769Z,99.32
2018-12-20T20:56:57.812Z,99.45
2018-12-20T20:59:34.734Z,99.24
2018-12-20T21:02:07.986Z,98.65
2018-12-20T21:04:41.521Z,98.46
2018-12-20T21:07:14.236Z,98.61
2018-12-20T21:09:47.160Z,98.35
2018-12-20T21:12:22.930Z,98.44
2018-12-20T21:14:55.457Z,98.44
2018-12-20T21:17:28.494Z,98.21
2018-12-20T21:20:01.576Z,98.58
2018-12-20T21:22:34.861Z,97.53
2018-12-20T21:25:08.615Z,97.54
2018-12-20T21:27:42.201Z,97.06
2018-12-20T21:30:15.315Z,97.90
2018-12-20T21:32:48.177Z,97.29
2018-12-20T21:35:21.206Z,97.49
2018-12-20T21:37:54.341Z,97.17
2018-12-20T21:40:31.185Z,96.97
2018-12-20T21:43:04.321Z,97.86
2018-12-20T21:45:37.261Z,96.93
2018-12-20T21:48:10.461Z,97.78
2018-12-20T21:50:47.347Z,96.93
2018-12-20T21:53:24.160Z,96.51
2018-12-20T21:55:58.057Z,96.52
2018-12-20T21:58:31.215Z,96.55
2018-12-20T22:18:47.586Z,95.38
2018-12-20T22:21:20.708Z,95.37
2018-12-20T22:23:53.973Z,95.18
2018-12-20T22:26:26.882Z,95.28
2018-12-20T22:28:59.642Z,95.74
2018-12-20T22:31:33.689Z,95.40
2018-12-20T22:34:05.953Z,94.19
2018-12-20T22:36:39.036Z,94.59
2018-12-20T22:39:11.077Z,95.03
2018-12-20T22:41:43.209Z,95.32
2018-12-20T22:44:16.201Z,95.11
2018-12-20T22:46:48.513Z,95.47
2018-12-20T22:49:21.410Z,95.49
2018-12-20T22:51:54.745Z,95.28
2018-12-20T22:54:31.477Z,95.35
2018-12-20T22:57:04.182Z,95.39
2018-12-20T22:59:37.304Z,95.43
2018-12-20T23:02:17.880Z,95.24
2018-12-20T23:04:48.678Z,96.31
2018-12-20T23:07:20.808Z,95.75
2018-12-20T23:09:53.213Z,96.16
2018-12-20T23:12:26.093Z,96.15
2018-12-20T23:14:59.069Z,96.56
2018-12-20T23:17:31.822Z,96.03
2018-12-20T23:20:05.753Z,96.52
2018-12-20T23:22:42.161Z,97.51
2018-12-20T23:25:14.784Z,97.41
2018-12-20T23:27:47.741Z,97.74
2018-12-20T23:30:20.561Z,97.05
2018-12-20T23:32:53.350Z,97.24
2018-12-20T23:35:26.282Z,97.54
2018-12-20T23:38:02.431Z,97.35
2018-12-20T23:40:34.641Z,97.45
2018-12-20T23:43:07.380Z,98.07
2018-12-20T23:45:40.529Z,98.25
2018-12-20T23:48:11.182Z,97.92
2018-12-20T23:50:47.564Z,97.75
2018-12-20T23:53:20.489Z,98.48
2018-12-20T23:55:53.533Z,97.94
2018-12-20T23:58:26.453Z,98.46
